This is the latest recevied weather packets stored in our database for station/object KD4MBW. If no packets are shown the sender has not sent any weather packets the latest 10 day(s).
| Time | Temp. | Humidity | Pressure | Rain* | Wind** | Luminosity | Snow |
|---|---|---|---|---|---|---|---|
| 1788115399 | 31.67° C | 74% | 1018 hPa | 0 mm | - | 217 W/m² | - |
| 1788115093 | 31.67° C | 75% | 1017.9 hPa | 0 mm | - | 248 W/m² | - |
| 1788114787 | 31.67° C | 73% | 1017.7 hPa | 0 mm | - | 253 W/m² | - |
| 1788114483 | 31.67° C | 74% | 1018 hPa | 0 mm | - | 903 W/m² | - |
| 1788114179 | 32.22° C | 71% | 1018.2 hPa | 0 mm | - | 219 W/m² | - |
| 1788113875 | 31.67° C | 75% | 1018.1 hPa | 0 mm | - | 833 W/m² | - |
| 1788113570 | 32.22° C | 72% | 1018 hPa | 0 mm | - | 395 W/m² | - |
| 1788113268 | 31.11° C | 74% | 1018.3 hPa | 0 mm | - | 346 W/m² | - |
| 1788112963 | 31.67° C | 75% | 1018.4 hPa | 0 mm | - | 207 W/m² | - |
| 1788112657 | 31.67° C | 75% | 1018.3 hPa | 0 mm | - | 210 W/m² | - |
| 1788112353 | 32.22° C | 70% | 1018.4 hPa | 0 mm | - | 765 W/m² | - |
| 1788112047 | 31.11° C | 75% | 1018.4 hPa | 0 mm | - | 776 W/m² | - |
| 1788111743 | 31.67° C | 76% | 1018.5 hPa | 0 mm | - | 238 W/m² | - |
| 1788111442 | 31.67° C | 78% | 1018.5 hPa | 0 mm | - | 924 W/m² | - |
| 1788111138 | 31.67° C | 76% | 1018.4 hPa | 0 mm | - | 198 W/m² | - |
| 1788110835 | 31.11° C | 79% | 1018.5 hPa | 0 mm | - | 743 W/m² | - |
| 1788110531 | 31.11° C | 77% | 1018.6 hPa | 0 mm | - | 885 W/m² | - |
| 1788110226 | 31.11° C | 78% | 1018.5 hPa | 0 mm | - | 690 W/m² | - |
| 1788109921 | 31.11° C | 77% | 1018.6 hPa | 0 mm | - | 700 W/m² | - |
| 1788109615 | 30.56° C | 78% | 1018.8 hPa | 0 mm | - | 803 W/m² | - |
| 1788109309 | 30.56° C | 79% | 1018.7 hPa | 0 mm | - | 798 W/m² | - |
| 1788109004 | 30.56° C | 79% | 1019 hPa | 0 mm | - | 768 W/m² | - |
| 1788108700 | 30.56° C | 80% | 1019 hPa | 0 mm | - | 752 W/m² | - |
| 1788108396 | 30.56° C | 79% | 1018.9 hPa | 0 mm | - | 775 W/m² | - |
| 1788108091 | 30.56° C | 80% | 1019 hPa | 0 mm | - | 780 W/m² | - |
* Rain latest hour (hover to see other rain measurements)
** Current wind speed in m/s (hover to see current wind gust speed)